| time (UTC) | temp C | wind direction | speed KPH | gust KPH | rain 1hr cm | rain 24hr cm | rain mn cm | humidity % | barometer mb |
| 20260504044532 | 4 | 255 | 0.0 | 0.0 | 0.00 | 0.00 | 0.00 | 88 | 1016.2 |
| 20260504043030 | 4 | 255 | 0.0 | 0.0 | 0.00 | 0.00 | 0.00 | 87 | 1016.3 |
| 20260504041529 | 4 | 255 | 0.0 | 0.0 | 0.00 | 0.00 | 0.00 | 86 | 1016.1 |
| 20260504040059 | 4 | 255 | 0.0 | 0.0 | 0.00 | 0.00 | 0.00 | 85 | 1016.0 |
| 20260504034529 | 5 | 255 | 0.0 | 0.0 | 0.00 | 0.00 | 0.00 | 84 | 1016.1 |
| 20260504024558 | 6 | 255 | 0.0 | 0.0 | 0.00 | 0.00 | 0.00 | 79 | 1015.9 |
| 20260504023027 | 6 | 255 | 0.0 | 0.0 | 0.00 | 0.00 | 0.00 | 77 | 1015.8 |
| 20260504021527 | 7 | 255 | 0.0 | 0.0 | 0.00 | 0.00 | 0.00 | 74 | 1015.8 |
| 20260504020056 | 7 | 255 | 0.0 | 0.0 | 0.00 | 0.00 | 0.00 | 70 | 1015.6 |
| 20260504014525 | 8 | 255 | 0.0 | 0.0 | 0.00 | 0.00 | 0.00 | 67 | 1015.3 |
| 20260504013025 | 8 | 255 | 0.0 | 0.0 | 0.00 | 0.00 | 0.00 | 63 | 1015.1 |
| 20260504011555 | 10 | 255 | 0.0 | 0.0 | 0.00 | 0.00 | 0.00 | 59 | 1014.8 |
| 20260504010055 | 10 | 255 | 0.0 | 0.0 | 0.00 | 0.00 | 0.00 | 56 | 1014.8 |
| 20260504004553 | 11 | 255 | 0.0 | 0.0 | 0.00 | 0.00 | 0.00 | 49 | 1014.9 |
| 20260504003053 | 12 | 255 | 0.0 | 0.0 | 0.00 | 0.00 | 0.00 | 45 | 1014.8 |
| 20260504001553 | 13 | 255 | 0.0 | 0.0 | 0.00 | 0.00 | 0.00 | 42 | 1014.8 |
| 20260504000052 | 14 | 255 | 0.0 | 0.0 | 0.00 | 0.00 | 0.00 | 38 | 1014.7 |
| 20260503234552 | 15 | 255 | 0.0 | 0.0 | 0.00 | 0.00 | 0.00 | 35 | 1014.6 |
| 20260503233051 | 16 | 255 | 0.0 | 3.2 | 0.00 | 0.00 | 0.00 | 33 | 1014.5 |
| 20260503231550 | 16 | 288 | 0.0 | 3.2 | 0.00 | 0.00 | 0.00 | 32 | 1014.4 |
| 20260503230051 | 16 | 203 | 1.6 | 6.4 | 0.00 | 0.00 | 0.00 | 33 | 1014.3 |
| 20260503224550 | 17 | 232 | 1.6 | 8.0 | 0.00 | 0.00 | 0.00 | 29 | 1014.4 |
| 20260503223050 | 17 | 252 | 3.2 | 11.3 | 0.00 | 0.00 | 0.00 | 29 | 1014.5 |
| 20260503221549 | 17 | 157 | 4.8 | 11.3 | 0.00 | 0.00 | 0.00 | 29 | 1014.5 |
| 20260503220049 | 18 | 229 | 1.6 | 8.0 | 0.00 | 0.00 | 0.00 | 28 | 1014.6 |
| 20260503214548 | 18 | 265 | 0.0 | 8.0 | 0.00 | 0.00 | 0.00 | 27 | 1014.5 |
| 20260503213048 | 18 | 302 | 4.8 | 14.5 | 0.00 | 0.00 | 0.00 | 29 | 1014.6 |
| 20260503210047 | 18 | 306 | 3.2 | 11.3 | 0.00 | 0.00 | 0.00 | 29 | 1014.5 |
| 20260503204546 | 18 | 319 | 3.2 | 11.3 | 0.00 | 0.00 | 0.00 | 30 | 1014.7 |
| 20260503203046 | 17 | 265 | 1.6 | 11.3 | 0.00 | 0.00 | 0.00 | 30 | 1014.7 |
| 20260503201546 | 17 | 232 | 3.2 | 11.3 | 0.00 | 0.00 | 0.00 | 33 | 1014.9 |
| 20260503200045 | 17 | 229 | 3.2 | 12.9 | 0.00 | 0.00 | 0.00 | 34 | 1015.1 |
| 20260503194545 | 17 | 279 | 1.6 | 16.1 | 0.00 | 0.00 | 0.00 | 36 | 1015.4 |
| 20260503193044 | 16 | 244 | 3.2 | 9.7 | 0.00 | 0.00 | 0.00 | 33 | 1015.7 |
| 20260503191544 | 16 | 193 | 4.8 | 14.5 | 0.00 | 0.00 | 0.00 | 33 | 1016.1 |
| 20260503190043 | 16 | 252 | 1.6 | 12.9 | 0.00 | 0.00 | 0.00 | 34 | 1016.4 |
| 20260503184543 | 16 | 277 | 1.6 | 12.9 | 0.00 | 0.00 | 0.00 | 36 | 1016.6 |
| 20260503183043 | 16 | 228 | 1.6 | 14.5 | 0.00 | 0.00 | 0.00 | 36 | 1016.5 |
| 20260503180042 | 15 | 244 | 14.5 | 14.5 | 0.00 | 0.00 | 0.00 | 38 | 1016.7 |
| 20260503174541 | 14 | 323 | 1.6 | 16.1 | 0.00 | 0.00 | 0.00 | 38 | 1016.9 |
| 20260503173041 | 14 | 271 | 4.8 | 11.3 | 0.00 | 0.00 | 0.00 | 39 | 1017.0 |
| 20260503171543 | 13 | 64 | 6.4 | 9.7 | 0.00 | 0.00 | 0.00 | 41 | 1017.2 |